Terminal Aerodrome Forecast
Issued by NWS Austin/San Antonio, TX

Home | Current Version | Previous Version | Text Only | Print | Product List | Glossary On
Versions: 1 2 3 4 5 6 7 8 9 10 11 12 13 14 15 16 17 18
000
FTUS44 KEWX 060520
TAFDRT
TAF
KDRT 060520Z 0606/0706 11010KT P6SM OVC008
      TEMPO 0611/0614 3SM BR BKN005
     FM061800 13012KT P6SM OVC012
     FM062000 14013KT P6SM BKN025 BKN050
     FM062200 14015KT P6SM BKN040
     FM070300 13013KT P6SM BKN015=

USA.gov is the U.S. government's official web portal to all federal, state and local government web resources and services.